sensor_id;sensor_type;location;lat;lon;timestamp;pressure;altitude;pressure_sealevel;temperature;humidity
65800;BME280;52544;48.116;11.660;2024-01-16T00:00:47;94908.25;;;-2.77;100.00
65800;BME280;52544;48.116;11.660;2024-01-16T00:03:12;94909.59;;;-2.87;100.00
65800;BME280;52544;48.116;11.660;2024-01-16T00:05:37;94913.13;;;-2.89;100.00
65800;BME280;52544;48.116;11.660;2024-01-16T00:08:03;94917.34;;;-2.87;100.00
65800;BME280;52544;48.116;11.660;2024-01-16T00:10:29;94915.47;;;-2.83;100.00
65800;BME280;52544;48.116;11.660;2024-01-16T00:12:54;94920.91;;;-2.89;100.00
65800;BME280;52544;48.116;11.660;2024-01-16T00:15:20;94917.63;;;-2.93;100.00
65800;BME280;52544;48.116;11.660;2024-01-16T00:17:45;94918.28;;;-2.88;100.00
65800;BME280;52544;48.116;11.660;2024-01-16T00:20:11;94925.53;;;-2.96;100.00
65800;BME280;52544;48.116;11.660;2024-01-16T00:22:36;94925.78;;;-3.02;100.00
65800;BME280;52544;48.116;11.660;2024-01-16T00:25:01;94930.91;;;-3.00;100.00
65800;BME280;52544;48.116;11.660;2024-01-16T00:27:27;94932.78;;;-3.04;100.00
65800;BME280;52544;48.116;11.660;2024-01-16T00:29:52;94935.25;;;-3.01;100.00
65800;BME280;52544;48.116;11.660;2024-01-16T00:32:18;94928.25;;;-2.99;100.00
65800;BME280;52544;48.116;11.660;2024-01-16T00:34:43;94931.03;;;-3.04;100.00
65800;BME280;52544;48.116;11.660;2024-01-16T00:37:09;94935.50;;;-3.07;100.00
65800;BME280;52544;48.116;11.660;2024-01-16T00:39:34;94936.94;;;-3.00;100.00
65800;BME280;52544;48.116;11.660;2024-01-16T00:42:01;94934.53;;;-3.05;100.00
65800;BME280;52544;48.116;11.660;2024-01-16T00:44:27;94934.66;;;-3.08;100.00
65800;BME280;52544;48.116;11.660;2024-01-16T00:46:53;94939.59;;;-3.02;100.00
65800;BME280;52544;48.116;11.660;2024-01-16T00:49:18;94950.19;;;-3.08;100.00
65800;BME280;52544;48.116;11.660;2024-01-16T00:51:44;94952.59;;;-3.03;100.00
65800;BME280;52544;48.116;11.660;2024-01-16T00:54:09;94953.56;;;-3.06;100.00
65800;BME280;52544;48.116;11.660;2024-01-16T00:56:35;94952.59;;;-3.03;100.00
65800;BME280;52544;48.116;11.660;2024-01-16T00:59:01;94957.72;;;-3.02;100.00
65800;BME280;52544;48.116;11.660;2024-01-16T01:01:27;94951.47;;;-2.97;100.00
65800;BME280;52544;48.116;11.660;2024-01-16T01:03:52;94955.81;;;-2.98;100.00
65800;BME280;52544;48.116;11.660;2024-01-16T01:06:18;94959.59;;;-3.05;100.00
65800;BME280;52544;48.116;11.660;2024-01-16T01:08:44;94962.56;;;-3.14;100.00
65800;BME280;52544;48.116;11.660;2024-01-16T01:11:09;94968.38;;;-3.09;100.00
65800;BME280;52544;48.116;11.660;2024-01-16T01:13:34;94967.28;;;-3.04;100.00
65800;BME280;52544;48.116;11.660;2024-01-16T01:16:00;94968.38;;;-3.09;100.00
65800;BME280;52544;48.116;11.660;2024-01-16T01:18:26;94965.91;;;-3.12;100.00
65800;BME280;52544;48.116;11.660;2024-01-16T01:20:51;94968.78;;;-3.18;100.00
65800;BME280;52544;48.116;11.660;2024-01-16T01:23:17;94974.19;;;-3.24;100.00
65800;BME280;52544;48.116;11.660;2024-01-16T01:25:42;94985.97;;;-3.17;100.00
65800;BME280;52544;48.116;11.660;2024-01-16T01:28:08;94979.97;;;-3.18;100.00
65800;BME280;52544;48.116;11.660;2024-01-16T01:30:33;94985.63;;;-3.30;100.00
65800;BME280;52544;48.116;11.660;2024-01-16T01:32:59;94988.22;;;-3.30;100.00
65800;BME280;52544;48.116;11.660;2024-01-16T01:35:24;94992.16;;;-3.42;100.00
65800;BME280;52544;48.116;11.660;2024-01-16T01:37:50;94996.09;;;-3.33;100.00
65800;BME280;52544;48.116;11.660;2024-01-16T01:40:15;95000.56;;;-3.37;100.00
65800;BME280;52544;48.116;11.660;2024-01-16T01:42:44;95003.09;;;-3.35;100.00
65800;BME280;52544;48.116;11.660;2024-01-16T01:45:10;95007.41;;;-3.36;100.00
65800;BME280;52544;48.116;11.660;2024-01-16T01:47:39;95007.41;;;-3.36;100.00
65800;BME280;52544;48.116;11.660;2024-01-16T01:50:06;95021.03;;;-3.31;100.00
65800;BME280;52544;48.116;11.660;2024-01-16T01:52:33;95024.50;;;-3.32;100.00
65800;BME280;52544;48.116;11.660;2024-01-16T01:54:59;95017.47;;;-3.28;100.00
65800;BME280;52544;48.116;11.660;2024-01-16T01:57:26;95033.47;;;-3.18;100.00
65800;BME280;52544;48.116;11.660;2024-01-16T01:59:52;95024.53;;;-3.11;100.00
65800;BME280;52544;48.116;11.660;2024-01-16T02:02:18;95025.34;;;-3.09;100.00
65800;BME280;52544;48.116;11.660;2024-01-16T02:04:45;95021.03;;;-3.10;100.00
65800;BME280;52544;48.116;11.660;2024-01-16T02:07:12;95021.41;;;-3.19;100.00
65800;BME280;52544;48.116;11.660;2024-01-16T02:09:37;95028.31;;;-3.18;100.00
65800;BME280;52544;48.116;11.660;2024-01-16T02:12:04;95026.22;;;-3.10;100.00
65800;BME280;52544;48.116;11.660;2024-01-16T02:14:30;95025.19;;;-3.06;100.00
65800;BME280;52544;48.116;11.660;2024-01-16T02:16:55;95027.28;;;-3.14;100.00
65800;BME280;52544;48.116;11.660;2024-01-16T02:19:20;95028.69;;;-3.07;100.00
65800;BME280;52544;48.116;11.660;2024-01-16T02:21:49;95028.69;;;-3.07;100.00
65800;BME280;52544;48.116;11.660;2024-01-16T02:24:17;95026.47;;;-3.16;100.00
65800;BME280;52544;48.116;11.660;2024-01-16T02:26:43;95024.53;;;-3.11;100.00
65800;BME280;52544;48.116;11.660;2024-01-16T02:29:09;95024.50;;;-3.10;100.00
65800;BME280;52544;48.116;11.660;2024-01-16T02:31:35;95023.47;;;-3.06;100.00
65800;BME280;52544;48.116;11.660;2024-01-16T02:34:00;95019.16;;;-3.07;100.00
65800;BME280;52544;48.116;11.660;2024-01-16T02:36:27;95028.16;;;-3.15;100.00
65800;BME280;52544;48.116;11.660;2024-01-16T02:38:54;95026.56;;;-3.18;100.00
65800;BME280;52544;48.116;11.660;2024-01-16T02:41:20;95028.66;;;-3.28;100.00
65800;BME280;52544;48.116;11.660;2024-01-16T02:43:46;95028.47;;;-3.45;100.00
65800;BME280;52544;48.116;11.660;2024-01-16T02:46:11;95028.47;;;-3.45;100.00
65800;BME280;52544;48.116;11.660;2024-01-16T02:48:37;95030.03;;;-3.41;100.00
65800;BME280;52544;48.116;11.660;2024-01-16T02:51:03;95030.66;;;-3.56;100.00
65800;BME280;52544;48.116;11.660;2024-01-16T02:53:30;95034.50;;;-3.44;100.00
65800;BME280;52544;48.116;11.660;2024-01-16T02:55:55;95027.09;;;-3.54;100.00
65800;BME280;52544;48.116;11.660;2024-01-16T02:58:24;95026.91;;;-3.49;100.00
65800;BME280;52544;48.116;11.660;2024-01-16T03:00:49;95027.81;;;-3.50;100.00
65800;BME280;52544;48.116;11.660;2024-01-16T03:03:15;95030.97;;;-3.64;100.00
65800;BME280;52544;48.116;11.660;2024-01-16T03:05:40;95032.53;;;-3.82;100.00
65800;BME280;52544;48.116;11.660;2024-01-16T03:08:06;95037.94;;;-3.66;100.00
65800;BME280;52544;48.116;11.660;2024-01-16T03:10:32;95036.69;;;-3.78;100.00
65800;BME280;52544;48.116;11.660;2024-01-16T03:12:57;95044.38;;;-3.76;100.00
65800;BME280;52544;48.116;11.660;2024-01-16T03:15:23;95040.59;;;-3.91;100.00
65800;BME280;52544;48.116;11.660;2024-01-16T03:17:48;95044.81;;;-3.88;100.00
65800;BME280;52544;48.116;11.660;2024-01-16T03:20:15;95045.44;;;-3.82;100.00
65800;BME280;52544;48.116;11.660;2024-01-16T03:22:40;95042.66;;;-3.99;100.00
65800;BME280;52544;48.116;11.660;2024-01-16T03:25:08;95046.75;;;-3.93;100.00
65800;BME280;52544;48.116;11.660;2024-01-16T03:27:33;95047.03;;;-4.01;100.00
65800;BME280;52544;48.116;11.660;2024-01-16T03:29:59;95041.78;;;-3.99;100.00
65800;BME280;52544;48.116;11.660;2024-01-16T03:32:24;95055.78;;;-4.05;100.00
65800;BME280;52544;48.116;11.660;2024-01-16T03:34:50;95053.00;;;-3.99;100.00
65800;BME280;52544;48.116;11.660;2024-01-16T03:37:15;95045.53;;;-4.07;100.00
65800;BME280;52544;48.116;11.660;2024-01-16T03:39:41;95057.72;;;-4.10;100.00
65800;BME280;52544;48.116;11.660;2024-01-16T03:42:07;95047.47;;;-4.13;100.00
65800;BME280;52544;48.116;11.660;2024-01-16T03:44:32;95045.78;;;-4.14;100.00
65800;BME280;52544;48.116;11.660;2024-01-16T03:46:57;95040.72;;;-4.17;100.00
65800;BME280;52544;48.116;11.660;2024-01-16T03:49:23;95045.22;;;-4.22;100.00
65800;BME280;52544;48.116;11.660;2024-01-16T03:51:49;95046.13;;;-4.23;100.00
65800;BME280;52544;48.116;11.660;2024-01-16T03:54:15;95030.41;;;-4.17;100.00
65800;BME280;52544;48.116;11.660;2024-01-16T03:56:40;95041.88;;;-4.24;100.00
65800;BME280;52544;48.116;11.660;2024-01-16T03:59:05;95034.06;;;-4.23;100.00
65800;BME280;52544;48.116;11.660;2024-01-16T04:01:32;95033.44;;;-4.30;100.00
65800;BME280;52544;48.116;11.660;2024-01-16T04:03:58;95043.56;;;-4.23;100.00
65800;BME280;52544;48.116;11.660;2024-01-16T04:06:23;95034.91;;;-4.22;100.00
65800;BME280;52544;48.116;11.660;2024-01-16T04:08:48;95046.91;;;-4.21;100.00
65800;BME280;52544;48.116;11.660;2024-01-16T04:11:14;95035.56;;;-4.17;100.00
65800;BME280;52544;48.116;11.660;2024-01-16T04:13:40;95031.97;;;-4.13;100.00
65800;BME280;52544;48.116;11.660;2024-01-16T04:16:06;95037.94;;;-4.11;100.00
65800;BME280;52544;48.116;11.660;2024-01-16T04:18:39;95040.84;;;-3.97;100.00
65800;BME280;52544;48.116;11.660;2024-01-16T04:21:06;95028.75;;;-3.96;100.00
65800;BME280;52544;48.116;11.660;2024-01-16T04:23:32;95033.94;;;-3.96;100.00
65800;BME280;52544;48.116;11.660;2024-01-16T04:25:58;95041.28;;;-4.09;100.00
65800;BME280;52544;48.116;11.660;2024-01-16T04:28:24;95030.44;;;-3.95;100.00
65800;BME280;52544;48.116;11.660;2024-01-16T04:30:49;95030.25;;;-3.91;100.00
65800;BME280;52544;48.116;11.660;2024-01-16T04:33:15;95028.47;;;-3.89;100.00
65800;BME280;52544;48.116;11.660;2024-01-16T04:35:40;95029.19;;;-3.85;100.00
65800;BME280;52544;48.116;11.660;2024-01-16T04:38:05;95034.09;;;-3.78;100.00
65800;BME280;52544;48.116;11.660;2024-01-16T04:40:31;95032.69;;;-3.86;100.00
65800;BME280;52544;48.116;11.660;2024-01-16T04:42:56;95030.03;;;-3.85;100.00
65800;BME280;52544;48.116;11.660;2024-01-16T04:45:22;95028.22;;;-3.83;100.00
65800;BME280;52544;48.116;11.660;2024-01-16T04:47:47;95016.94;;;-3.80;100.00
65800;BME280;52544;48.116;11.660;2024-01-16T04:50:12;95027.47;;;-3.85;100.00
65800;BME280;52544;48.116;11.660;2024-01-16T04:52:38;95036.13;;;-3.86;100.00
65800;BME280;52544;48.116;11.660;2024-01-16T04:55:04;95031.50;;;-3.78;100.00
65800;BME280;52544;48.116;11.660;2024-01-16T04:57:29;95029.03;;;-3.81;100.00
65800;BME280;52544;48.116;11.660;2024-01-16T04:59:54;95030.03;;;-3.85;100.00
65800;BME280;52544;48.116;11.660;2024-01-16T05:02:21;95029.59;;;-3.96;100.00
65800;BME280;52544;48.116;11.660;2024-01-16T05:04:46;95032.31;;;-3.99;100.00
65800;BME280;52544;48.116;11.660;2024-01-16T05:07:14;95029.88;;;-4.04;100.00
65800;BME280;52544;48.116;11.660;2024-01-16T05:09:40;95030.84;;;-4.06;100.00
65800;BME280;52544;48.116;11.660;2024-01-16T05:12:05;95036.94;;;-4.07;100.00
65800;BME280;52544;48.116;11.660;2024-01-16T05:14:31;95038.25;;;-3.97;100.00
65800;BME280;52544;48.116;11.660;2024-01-16T05:16:56;95039.28;;;-4.01;100.00
65800;BME280;52544;48.116;11.660;2024-01-16T05:19:21;95041.97;;;-4.04;100.00
65800;BME280;52544;48.116;11.660;2024-01-16T05:21:47;95039.97;;;-4.19;100.00
65800;BME280;52544;48.116;11.660;2024-01-16T05:24:12;95042.72;;;-4.24;100.00
65800;BME280;52544;48.116;11.660;2024-01-16T05:26:38;95042.09;;;-4.31;100.00
65800;BME280;52544;48.116;11.660;2024-01-16T05:29:03;95039.41;;;-4.28;100.00
65800;BME280;52544;48.116;11.660;2024-01-16T05:31:28;95041.63;;;-4.42;100.00
65800;BME280;52544;48.116;11.660;2024-01-16T05:33:54;95040.50;;;-4.35;100.00
65800;BME280;52544;48.116;11.660;2024-01-16T05:36:19;95038.72;;;-4.33;100.00
65800;BME280;52544;48.116;11.660;2024-01-16T05:38:46;95043.31;;;-4.41;100.00
65800;BME280;52544;48.116;11.660;2024-01-16T05:41:11;95039.50;;;-4.54;100.00
65800;BME280;52544;48.116;11.660;2024-01-16T05:43:36;95031.75;;;-4.54;100.00
65800;BME280;52544;48.116;11.660;2024-01-16T05:46:02;95045.22;;;-4.46;100.00
65800;BME280;52544;48.116;11.660;2024-01-16T05:48:27;95044.97;;;-4.63;100.00
65800;BME280;52544;48.116;11.660;2024-01-16T05:50:53;95037.69;;;-4.52;100.00
65800;BME280;52544;48.116;11.660;2024-01-16T05:53:18;95033.47;;;-4.55;100.00
65800;BME280;52544;48.116;11.660;2024-01-16T05:55:44;95031.50;;;-4.71;100.00
65800;BME280;52544;48.116;11.660;2024-01-16T05:58:09;95033.19;;;-4.70;100.00
65800;BME280;52544;48.116;11.660;2024-01-16T06:00:35;95025.31;;;-4.67;100.00
65800;BME280;52544;48.116;11.660;2024-01-16T06:03:00;95032.19;;;-4.66;100.00
65800;BME280;52544;48.116;11.660;2024-01-16T06:05:26;95031.28;;;-4.90;100.00
65800;BME280;52544;48.116;11.660;2024-01-16T06:07:52;95033.91;;;-4.92;100.00
65800;BME280;52544;48.116;11.660;2024-01-16T06:10:17;95034.34;;;-4.79;100.00
65800;BME280;52544;48.116;11.660;2024-01-16T06:12:42;95031.34;;;-4.67;100.00
65800;BME280;52544;48.116;11.660;2024-01-16T06:15:08;95029.75;;;-4.71;100.00
65800;BME280;52544;48.116;11.660;2024-01-16T06:17:34;95036.53;;;-4.68;100.00
65800;BME280;52544;48.116;11.660;2024-01-16T06:20:00;95034.09;;;-4.71;100.00
65800;BME280;52544;48.116;11.660;2024-01-16T06:22:25;95038.53;;;-4.77;100.00
65800;BME280;52544;48.116;11.660;2024-01-16T06:24:51;95043.09;;;-4.83;100.00
65800;BME280;52544;48.116;11.660;2024-01-16T06:27:16;95046.34;;;-4.78;100.00
65800;BME280;52544;48.116;11.660;2024-01-16T06:29:50;95041.19;;;-4.78;100.00
65800;BME280;52544;48.116;11.660;2024-01-16T06:32:16;95040.03;;;-4.69;100.00
65800;BME280;52544;48.116;11.660;2024-01-16T06:34:42;95042.94;;;-4.55;100.00
65800;BME280;52544;48.116;11.660;2024-01-16T06:37:07;95041.06;;;-4.50;100.00
65800;BME280;52544;48.116;11.660;2024-01-16T06:39:33;95039.59;;;-4.57;100.00
65800;BME280;52544;48.116;11.660;2024-01-16T06:41:59;95035.44;;;-4.61;100.00
65800;BME280;52544;48.116;11.660;2024-01-16T06:44:25;95032.22;;;-4.68;100.00
65800;BME280;52544;48.116;11.660;2024-01-16T06:46:50;95034.78;;;-4.68;100.00
65800;BME280;52544;48.116;11.660;2024-01-16T06:49:16;95035.63;;;-4.67;100.00
65800;BME280;52544;48.116;11.660;2024-01-16T06:51:41;95040.44;;;-4.82;100.00
65800;BME280;52544;48.116;11.660;2024-01-16T06:54:06;95036.84;;;-4.78;100.00
65800;BME280;52544;48.116;11.660;2024-01-16T06:56:32;95040.28;;;-4.77;100.00
65800;BME280;52544;48.116;11.660;2024-01-16T06:58:57;95044.34;;;-4.95;100.00
65800;BME280;52544;48.116;11.660;2024-01-16T07:01:23;95044.25;;;-4.92;100.00
65800;BME280;52544;48.116;11.660;2024-01-16T07:03:48;95047.50;;;-4.87;100.00
65800;BME280;52544;48.116;11.660;2024-01-16T07:06:13;95043.44;;;-4.94;100.00
65800;BME280;52544;48.116;11.660;2024-01-16T07:08:39;95042.28;;;-4.85;100.00
65800;BME280;52544;48.116;11.660;2024-01-16T07:11:04;95043.91;;;-4.83;100.00
65800;BME280;52544;48.116;11.660;2024-01-16T07:13:33;95050.66;;;-4.79;100.00
65800;BME280;52544;48.116;11.660;2024-01-16T07:15:59;95049.09;;;-4.83;100.00
65800;BME280;52544;48.116;11.660;2024-01-16T07:18:24;95048.34;;;-4.86;100.00
65800;BME280;52544;48.116;11.660;2024-01-16T07:20:50;95038.00;;;-4.86;100.00
65800;BME280;52544;48.116;11.660;2024-01-16T07:23:15;95043.44;;;-4.94;100.00
65800;BME280;52544;48.116;11.660;2024-01-16T07:25:41;95040.66;;;-4.88;100.00
65800;BME280;52544;48.116;11.660;2024-01-16T07:28:06;95046.28;;;-4.77;100.00
65800;BME280;52544;48.116;11.660;2024-01-16T07:30:31;95049.94;;;-4.82;100.00
65800;BME280;52544;48.116;11.660;2024-01-16T07:32:57;95054.16;;;-4.80;100.00
65800;BME280;52544;48.116;11.660;2024-01-16T07:35:22;95057.91;;;-4.88;100.00
65800;BME280;52544;48.116;11.660;2024-01-16T07:37:47;95058.56;;;-4.83;100.00
65800;BME280;52544;48.116;11.660;2024-01-16T07:40:13;95055.41;;;-4.66;100.00
65800;BME280;52544;48.116;11.660;2024-01-16T07:42:39;95058.16;;;-4.71;100.00
65800;BME280;52544;48.116;11.660;2024-01-16T07:45:05;95057.31;;;-4.96;100.00
65800;BME280;52544;48.116;11.660;2024-01-16T07:47:31;95059.59;;;-4.89;100.00
65800;BME280;52544;48.116;11.660;2024-01-16T07:49:57;95057.31;;;-4.96;100.00
65800;BME280;52544;48.116;11.660;2024-01-16T07:52:23;95050.00;;;-5.10;100.00
65800;BME280;52544;48.116;11.660;2024-01-16T07:54:48;95048.91;;;-5.03;100.00
65800;BME280;52544;48.116;11.660;2024-01-16T07:57:14;95044.56;;;-5.01;100.00
65800;BME280;52544;48.116;11.660;2024-01-16T07:59:39;95042.34;;;-4.87;100.00
65800;BME280;52544;48.116;11.660;2024-01-16T08:02:06;95037.75;;;-4.79;100.00
65800;BME280;52544;48.116;11.660;2024-01-16T08:04:31;95039.59;;;-4.57;100.00
65800;BME280;52544;48.116;11.660;2024-01-16T08:06:57;95039.69;;;-4.60;100.00
65800;BME280;52544;48.116;11.660;2024-01-16T08:09:23;95050.50;;;-4.49;100.00
65800;BME280;52544;48.116;11.660;2024-01-16T08:11:48;95053.09;;;-4.49;100.00
65800;BME280;52544;48.116;11.660;2024-01-16T08:14:13;95055.34;;;-4.40;100.00
65800;BME280;52544;48.116;11.660;2024-01-16T08:16:39;95057.91;;;-4.40;100.00
65800;BME280;52544;48.116;11.660;2024-01-16T08:19:04;95059.31;;;-4.31;100.00
65800;BME280;52544;48.116;11.660;2024-01-16T08:21:30;95054.66;;;-4.21;100.00
65800;BME280;52544;48.116;11.660;2024-01-16T08:23:55;95047.69;;;-3.96;100.00
65800;BME280;52544;48.116;11.660;2024-01-16T08:26:21;95052.38;;;-3.82;100.00
65800;BME280;52544;48.116;11.660;2024-01-16T08:28:46;95046.22;;;-3.80;100.00
65800;BME280;52544;48.116;11.660;2024-01-16T08:31:12;95052.13;;;-3.76;100.00
65800;BME280;52544;48.116;11.660;2024-01-16T08:33:37;95046.31;;;-3.59;100.00
65800;BME280;52544;48.116;11.660;2024-01-16T08:36:03;95044.97;;;-3.69;100.00
65800;BME280;52544;48.116;11.660;2024-01-16T08:38:29;95055.31;;;-3.69;100.00
65800;BME280;52544;48.116;11.660;2024-01-16T08:40:55;95054.25;;;-3.64;100.00
65800;BME280;52544;48.116;11.660;2024-01-16T08:43:20;95045.47;;;-3.60;100.00
65800;BME280;52544;48.116;11.660;2024-01-16T08:45:46;95050.63;;;-3.60;100.00
65800;BME280;52544;48.116;11.660;2024-01-16T08:48:13;95045.16;;;-3.52;100.00
65800;BME280;52544;48.116;11.660;2024-01-16T08:50:40;95042.34;;;-3.46;100.00
65800;BME280;52544;48.116;11.660;2024-01-16T08:53:06;95040.47;;;-3.42;100.00
65800;BME280;52544;48.116;11.660;2024-01-16T08:55:32;95038.47;;;-3.36;100.00
65800;BME280;52544;48.116;11.660;2024-01-16T08:57:57;95037.59;;;-3.35;100.00
65800;BME280;52544;48.116;11.660;2024-01-16T09:00:23;95026.75;;;-3.22;100.00
65800;BME280;52544;48.116;11.660;2024-01-16T09:02:48;95025.53;;;-2.93;100.00
65800;BME280;52544;48.116;11.660;2024-01-16T09:05:14;95024.38;;;-2.66;100.00
65800;BME280;52544;48.116;11.660;2024-01-16T09:07:40;95021.69;;;-2.64;100.00
65800;BME280;52544;48.116;11.660;2024-01-16T09:10:06;95016.63;;;-2.47;100.00
65800;BME280;52544;48.116;11.660;2024-01-16T09:12:32;95005.72;;;-2.35;100.00
65800;BME280;52544;48.116;11.660;2024-01-16T09:14:58;95012.97;;;-2.22;100.00
65800;BME280;52544;48.116;11.660;2024-01-16T09:17:24;95019.28;;;-2.09;100.00
65800;BME280;52544;48.116;11.660;2024-01-16T09:19:51;95009.34;;;-1.99;100.00
65800;BME280;52544;48.116;11.660;2024-01-16T09:22:17;95019.56;;;-1.96;100.00
65800;BME280;52544;48.116;11.660;2024-01-16T09:24:43;95012.28;;;-1.69;100.00
65800;BME280;52544;48.116;11.660;2024-01-16T09:27:09;95018.41;;;-1.53;100.00
65800;BME280;52544;48.116;11.660;2024-01-16T09:29:38;95016.81;;;-1.19;100.00
65800;BME280;52544;48.116;11.660;2024-01-16T09:32:03;95010.88;;;-1.04;96.03
65800;BME280;52544;48.116;11.660;2024-01-16T09:34:29;95010.78;;;-1.03;93.89
65800;BME280;52544;48.116;11.660;2024-01-16T09:36:55;95011.25;;;-0.94;93.05
65800;BME280;52544;48.116;11.660;2024-01-16T09:39:24;95014.75;;;-1.30;93.95
65800;BME280;52544;48.116;11.660;2024-01-16T09:41:49;95009.81;;;-1.00;93.71
65800;BME280;52544;48.116;11.660;2024-01-16T09:44:15;95008.72;;;-1.31;92.63
65800;BME280;52544;48.116;11.660;2024-01-16T09:46:43;95000.84;;;-1.29;92.36
65800;BME280;52544;48.116;11.660;2024-01-16T09:49:11;95007.53;;;-1.06;91.71
65800;BME280;52544;48.116;11.660;2024-01-16T09:51:37;95004.72;;;-1.02;92.52
65800;BME280;52544;48.116;11.660;2024-01-16T09:54:03;95005.81;;;-0.72;92.76
65800;BME280;52544;48.116;11.660;2024-01-16T09:56:35;95000.63;;;-0.72;89.19
65800;BME280;52544;48.116;11.660;2024-01-16T09:59:05;95012.25;;;-0.62;90.46
65800;BME280;52544;48.116;11.660;2024-01-16T10:01:32;95000.63;;;-0.38;89.26
65800;BME280;52544;48.116;11.660;2024-01-16T10:03:58;95002.38;;;-0.56;88.75
65800;BME280;52544;48.116;11.660;2024-01-16T10:06:27;95001.72;;;-0.94;88.80
65800;BME280;52544;48.116;11.660;2024-01-16T10:08:53;94996.69;;;-0.97;90.70
65800;BME280;52544;48.116;11.660;2024-01-16T10:11:18;94993.31;;;-0.99;90.29
65800;BME280;52544;48.116;11.660;2024-01-16T10:13:44;94984.59;;;-0.98;89.64
65800;BME280;52544;48.116;11.660;2024-01-16T10:16:10;94990.09;;;-1.04;89.94
65800;BME280;52544;48.116;11.660;2024-01-16T10:18:35;94987.81;;;-1.10;89.62
65800;BME280;52544;48.116;11.660;2024-01-16T10:21:02;94978.03;;;-1.05;90.10
65800;BME280;52544;48.116;11.660;2024-01-16T10:23:29;94987.03;;;-0.95;92.14
65800;BME280;52544;48.116;11.660;2024-01-16T10:28:30;94983.16;;;-0.86;89.58
65800;BME280;52544;48.116;11.660;2024-01-16T10:31:05;94980.53;;;-0.69;88.27
65800;BME280;52544;48.116;11.660;2024-01-16T10:33:30;94976.66;;;-0.78;89.53
65800;BME280;52544;48.116;11.660;2024-01-16T10:36:13;94972.50;;;-0.64;88.57
65800;BME280;52544;48.116;11.660;2024-01-16T10:38:44;94966.06;;;-0.57;93.62
65800;BME280;52544;48.116;11.660;2024-01-16T10:41:15;94958.38;;;-0.43;91.48
65800;BME280;52544;48.116;11.660;2024-01-16T10:43:41;94964.88;;;-0.34;93.28
65800;BME280;52544;48.116;11.660;2024-01-16T10:46:25;94959.75;;;-0.36;88.18
65800;BME280;52544;48.116;11.660;2024-01-16T10:49:01;94954.34;;;-0.15;88.88
65800;BME280;52544;48.116;11.660;2024-01-16T10:51:28;94953.81;;;-0.38;83.33
65800;BME280;52544;48.116;11.660;2024-01-16T10:54:00;94950.44;;;-0.40;84.33
65800;BME280;52544;48.116;11.660;2024-01-16T10:56:27;94956.56;;;-0.41;83.63
65800;BME280;52544;48.116;11.660;2024-01-16T10:59:25;94952.97;;;-0.22;80.84
65800;BME280;52544;48.116;11.660;2024-01-16T11:01:59;94945.13;;;-0.21;84.08
65800;BME280;52544;48.116;11.660;2024-01-16T11:04:27;94949.72;;;-0.10;80.84
65800;BME280;52544;48.116;11.660;2024-01-16T11:06:54;94942.88;;;0.05;78.74
65800;BME280;52544;48.116;11.660;2024-01-16T11:09:20;94945.31;;;-0.08;76.02
65800;BME280;52544;48.116;11.660;2024-01-16T11:11:46;94950.31;;;-0.05;77.23
65800;BME280;52544;48.116;11.660;2024-01-16T11:14:16;94948.16;;;0.19;77.26
65800;BME280;52544;48.116;11.660;2024-01-16T11:16:42;94952.94;;;0.27;75.04
65800;BME280;52544;48.116;11.660;2024-01-16T11:19:10;94953.78;;;0.27;71.46
65800;BME280;52544;48.116;11.660;2024-01-16T11:21:37;94951.75;;;0.48;71.77
65800;BME280;52544;48.116;11.660;2024-01-16T11:24:04;94944.25;;;0.73;69.88
65800;BME280;52544;48.116;11.660;2024-01-16T11:26:31;94930.94;;;0.78;68.25
65800;BME280;52544;48.116;11.660;2024-01-16T11:29:33;94927.97;;;0.54;67.73
65800;BME280;52544;48.116;11.660;2024-01-16T11:31:59;94923.09;;;0.64;67.40
65800;BME280;52544;48.116;11.660;2024-01-16T11:37:07;94920.56;;;0.46;63.52
65800;BME280;52544;48.116;11.660;2024-01-16T11:39:33;94913.22;;;0.39;67.05
65800;BME280;52544;48.116;11.660;2024-01-16T11:41:59;94912.13;;;0.43;69.35
65800;BME280;52544;48.116;11.660;2024-01-16T11:47:09;94907.28;;;0.05;64.67
65800;BME280;52544;48.116;11.660;2024-01-16T11:49:37;94908.78;;;-0.07;63.45
65800;BME280;52544;48.116;11.660;2024-01-16T11:52:03;94898.19;;;0.12;65.42
65800;BME280;52544;48.116;11.660;2024-01-16T11:54:29;94899.13;;;0.11;65.71
65800;BME280;52544;48.116;11.660;2024-01-16T12:00:04;94907.59;;;0.31;66.37
65800;BME280;52544;48.116;11.660;2024-01-16T12:05:12;94904.91;;;0.48;73.45
65800;BME280;52544;48.116;11.660;2024-01-16T12:07:49;94902.97;;;0.36;68.26
65800;BME280;52544;48.116;11.660;2024-01-16T12:10:16;94893.16;;;0.25;68.10
65800;BME280;52544;48.116;11.660;2024-01-16T12:12:42;94884.59;;;0.23;70.21
65800;BME280;52544;48.116;11.660;2024-01-16T12:15:13;94882.28;;;0.03;65.80
65800;BME280;52544;48.116;11.660;2024-01-16T12:17:55;94872.97;;;-0.02;65.46
65800;BME280;52544;48.116;11.660;2024-01-16T12:20:21;94860.94;;;0.12;66.92
65800;BME280;52544;48.116;11.660;2024-01-16T12:23:13;94861.66;;;0.30;64.43
65800;BME280;52544;48.116;11.660;2024-01-16T12:25:38;94851.09;;;0.33;66.68
65800;BME280;52544;48.116;11.660;2024-01-16T12:28:06;94845.84;;;0.48;66.69
65800;BME280;52544;48.116;11.660;2024-01-16T12:30:33;94830.19;;;0.64;65.69
65800;BME280;52544;48.116;11.660;2024-01-16T12:33:12;94835.13;;;0.83;68.87
65800;BME280;52544;48.116;11.660;2024-01-16T12:35:42;94826.88;;;0.91;66.23
65800;BME280;52544;48.116;11.660;2024-01-16T12:38:09;94827.09;;;1.02;64.56
65800;BME280;52544;48.116;11.660;2024-01-16T12:40:44;94821.09;;;1.00;64.17
65800;BME280;52544;48.116;11.660;2024-01-16T12:43:11;94815.63;;;1.05;63.56
65800;BME280;52544;48.116;11.660;2024-01-16T12:45:37;94819.63;;;0.96;63.59
65800;BME280;52544;48.116;11.660;2024-01-16T12:48:03;94815.25;;;0.96;62.17
65800;BME280;52544;48.116;11.660;2024-01-16T12:50:30;94814.22;;;0.99;62.79
65800;BME280;52544;48.116;11.660;2024-01-16T12:53:07;94815.50;;;1.06;62.19